sensor_id;sensor_type;location;lat;lon;timestamp;pressure;altitude;pressure_sealevel;temperature;humidity
22550;BME280;11441;57.164;-2.120;2022-10-23T00:01:50;99977.91;;;12.13;100.00
22550;BME280;11441;57.164;-2.120;2022-10-23T00:04:19;99982.91;;;12.00;100.00
22550;BME280;11441;57.164;-2.120;2022-10-23T00:06:47;99977.38;;;11.96;100.00
22550;BME280;11441;57.164;-2.120;2022-10-23T00:09:16;99982.53;;;12.01;100.00
22550;BME280;11441;57.164;-2.120;2022-10-23T00:11:45;99987.13;;;11.86;100.00
22550;BME280;11441;57.164;-2.120;2022-10-23T00:14:14;99975.78;;;11.95;100.00
22550;BME280;11441;57.164;-2.120;2022-10-23T00:16:42;99975.41;;;11.97;100.00
22550;BME280;11441;57.164;-2.120;2022-10-23T00:19:08;99974.13;;;11.87;100.00
22550;BME280;11441;57.164;-2.120;2022-10-23T00:21:54;99983.56;;;11.86;100.00
22550;BME280;11441;57.164;-2.120;2022-10-23T00:24:21;99975.03;;;11.98;100.00
22550;BME280;11441;57.164;-2.120;2022-10-23T00:26:49;99978.19;;;11.97;100.00
22550;BME280;11441;57.164;-2.120;2022-10-23T00:29:16;99985.50;;;11.82;100.00
22550;BME280;11441;57.164;-2.120;2022-10-23T00:31:43;99991.94;;;11.93;100.00
22550;BME280;11441;57.164;-2.120;2022-10-23T00:34:10;99990.34;;;11.92;100.00
22550;BME280;11441;57.164;-2.120;2022-10-23T00:36:37;99992.72;;;11.94;100.00
22550;BME280;11441;57.164;-2.120;2022-10-23T00:39:05;99995.44;;;11.90;100.00
22550;BME280;11441;57.164;-2.120;2022-10-23T00:41:32;99989.00;;;11.79;100.00
22550;BME280;11441;57.164;-2.120;2022-10-23T00:46:33;99990.31;;;11.51;100.00
22550;BME280;11441;57.164;-2.120;2022-10-23T00:49:01;99990.31;;;11.51;100.00
22550;BME280;11441;57.164;-2.120;2022-10-23T00:51:33;99987.50;;;11.44;100.00
22550;BME280;11441;57.164;-2.120;2022-10-23T00:54:02;99995.06;;;11.50;100.00
22550;BME280;11441;57.164;-2.120;2022-10-23T00:56:55;99988.47;;;11.25;100.00
22550;BME280;11441;57.164;-2.120;2022-10-23T00:59:22;100001.63;;;11.39;100.00
22550;BME280;11441;57.164;-2.120;2022-10-23T01:01:49;99996.84;;;11.32;100.00
22550;BME280;11441;57.164;-2.120;2022-10-23T01:04:17;99998.53;;;11.44;100.00
22550;BME280;11441;57.164;-2.120;2022-10-23T01:09:22;100007.13;;;11.39;100.00
22550;BME280;11441;57.164;-2.120;2022-10-23T01:26:39;99994.22;;;11.46;100.00
22550;BME280;11441;57.164;-2.120;2022-10-23T01:31:35;99997.78;;;11.47;100.00
22550;BME280;11441;57.164;-2.120;2022-10-23T01:34:13;99996.69;;;11.55;100.00
22550;BME280;11441;57.164;-2.120;2022-10-23T01:36:45;100003.41;;;11.58;100.00
22550;BME280;11441;57.164;-2.120;2022-10-23T01:39:22;100011.66;;;11.58;100.00
22550;BME280;11441;57.164;-2.120;2022-10-23T01:42:11;100004.22;;;11.58;100.00
22550;BME280;11441;57.164;-2.120;2022-10-23T01:44:45;100012.03;;;11.56;100.00
22550;BME280;11441;57.164;-2.120;2022-10-23T01:47:16;100008.47;;;11.52;100.00
22550;BME280;11441;57.164;-2.120;2022-10-23T01:49:56;100006.81;;;11.47;100.00
22550;BME280;11441;57.164;-2.120;2022-10-23T01:52:25;100005.25;;;11.46;100.00
22550;BME280;11441;57.164;-2.120;2022-10-23T01:54:55;100009.81;;;11.31;100.00
22550;BME280;11441;57.164;-2.120;2022-10-23T01:57:27;100000.41;;;11.36;100.00
22550;BME280;11441;57.164;-2.120;2022-10-23T02:00:00;100004.75;;;11.37;100.00
22550;BME280;11441;57.164;-2.120;2022-10-23T02:02:35;99996.03;;;11.31;100.00
22550;BME280;11441;57.164;-2.120;2022-10-23T02:05:09;100003.44;;;11.24;100.00
22550;BME280;11441;57.164;-2.120;2022-10-23T02:07:37;99998.91;;;11.08;100.00
22550;BME280;11441;57.164;-2.120;2022-10-23T02:10:25;99994.59;;;11.11;100.00
22550;BME280;11441;57.164;-2.120;2022-10-23T02:15:54;99991.09;;;11.14;100.00
22550;BME280;11441;57.164;-2.120;2022-10-23T02:18:37;99998.59;;;11.13;100.00
22550;BME280;11441;57.164;-2.120;2022-10-23T02:21:15;100005.63;;;11.11;100.00
22550;BME280;11441;57.164;-2.120;2022-10-23T02:23:51;100010.34;;;11.10;100.00
22550;BME280;11441;57.164;-2.120;2022-10-23T02:26:44;100011.38;;;11.29;100.00
22550;BME280;11441;57.164;-2.120;2022-10-23T02:29:30;100005.03;;;11.28;100.00
22550;BME280;11441;57.164;-2.120;2022-10-23T02:32:00;100001.72;;;11.12;100.00
22550;BME280;11441;57.164;-2.120;2022-10-23T02:34:27;100007.38;;;11.26;100.00
22550;BME280;11441;57.164;-2.120;2022-10-23T02:36:55;100000.84;;;11.04;100.00
22550;BME280;11441;57.164;-2.120;2022-10-23T02:39:25;99994.13;;;11.02;100.00
22550;BME280;11441;57.164;-2.120;2022-10-23T02:48:07;99999.00;;;11.16;100.00
22550;BME280;11441;57.164;-2.120;2022-10-23T02:58:02;99980.63;;;11.27;100.00
22550;BME280;11441;57.164;-2.120;2022-10-23T03:00:42;99985.38;;;11.30;100.00
22550;BME280;11441;57.164;-2.120;2022-10-23T03:03:26;99974.25;;;11.19;100.00
22550;BME280;11441;57.164;-2.120;2022-10-23T03:06:14;99964.78;;;11.17;100.00
22550;BME280;11441;57.164;-2.120;2022-10-23T03:09:03;99964.03;;;11.23;100.00
22550;BME280;11441;57.164;-2.120;2022-10-23T03:11:30;99966.34;;;11.18;100.00
22550;BME280;11441;57.164;-2.120;2022-10-23T03:13:57;99962.03;;;11.17;100.00
22550;BME280;11441;57.164;-2.120;2022-10-23T03:16:24;99958.00;;;11.10;100.00
22550;BME280;11441;57.164;-2.120;2022-10-23T03:18:53;99963.63;;;11.21;100.00
22550;BME280;11441;57.164;-2.120;2022-10-23T03:21:20;99971.94;;;11.25;100.00
22550;BME280;11441;57.164;-2.120;2022-10-23T03:24:09;99976.72;;;11.31;100.00
22550;BME280;11441;57.164;-2.120;2022-10-23T03:26:40;99968.84;;;11.30;100.00
22550;BME280;11441;57.164;-2.120;2022-10-23T03:29:08;99971.59;;;11.30;100.00
22550;BME280;11441;57.164;-2.120;2022-10-23T03:31:40;99969.28;;;11.32;100.00
22550;BME280;11441;57.164;-2.120;2022-10-23T03:34:07;99966.06;;;11.30;100.00
22550;BME280;11441;57.164;-2.120;2022-10-23T03:36:38;99975.16;;;11.30;100.00
22550;BME280;11441;57.164;-2.120;2022-10-23T03:39:07;99966.34;;;11.18;100.00
22550;BME280;11441;57.164;-2.120;2022-10-23T03:41:34;99967.94;;;11.19;100.00
22550;BME280;11441;57.164;-2.120;2022-10-23T03:44:01;99977.28;;;11.10;100.00
22550;BME280;11441;57.164;-2.120;2022-10-23T03:46:33;99972.19;;;11.12;100.00
22550;BME280;11441;57.164;-2.120;2022-10-23T03:49:00;99978.59;;;11.20;100.00
22550;BME280;11441;57.164;-2.120;2022-10-23T03:51:26;99974.56;;;11.14;100.00
22550;BME280;11441;57.164;-2.120;2022-10-23T03:53:54;99972.44;;;11.00;100.00
22550;BME280;11441;57.164;-2.120;2022-10-23T03:56:21;99969.16;;;10.87;100.00
22550;BME280;11441;57.164;-2.120;2022-10-23T03:58:48;99970.78;;;10.92;100.00
22550;BME280;11441;57.164;-2.120;2022-10-23T04:01:33;99972.47;;;10.70;100.00
22550;BME280;11441;57.164;-2.120;2022-10-23T04:04:01;99970.41;;;10.63;100.00
22550;BME280;11441;57.164;-2.120;2022-10-23T04:06:28;99961.16;;;10.79;100.00
22550;BME280;11441;57.164;-2.120;2022-10-23T04:08:56;99965.91;;;10.78;100.00
22550;BME280;11441;57.164;-2.120;2022-10-23T04:11:23;99970.31;;;10.86;100.00
22550;BME280;11441;57.164;-2.120;2022-10-23T04:13:50;99970.69;;;10.85;100.00
22550;BME280;11441;57.164;-2.120;2022-10-23T04:16:17;99977.91;;;10.97;100.00
22550;BME280;11441;57.164;-2.120;2022-10-23T04:18:44;99981.41;;;10.93;100.00
22550;BME280;11441;57.164;-2.120;2022-10-23T04:21:11;99986.47;;;10.88;100.00
22550;BME280;11441;57.164;-2.120;2022-10-23T04:23:38;99978.53;;;10.83;100.00
22550;BME280;11441;57.164;-2.120;2022-10-23T04:26:11;99987.19;;;10.85;100.00
22550;BME280;11441;57.164;-2.120;2022-10-23T04:28:38;99980.94;;;10.88;100.00
22550;BME280;11441;57.164;-2.120;2022-10-23T04:31:23;99986.91;;;10.93;100.00
22550;BME280;11441;57.164;-2.120;2022-10-23T04:33:50;99980.59;;;10.89;100.00
22550;BME280;11441;57.164;-2.120;2022-10-23T04:36:35;99986.19;;;10.97;100.00
22550;BME280;11441;57.164;-2.120;2022-10-23T04:39:07;99973.81;;;10.83;100.00
22550;BME280;11441;57.164;-2.120;2022-10-23T04:41:35;99974.38;;;10.96;100.00
22550;BME280;11441;57.164;-2.120;2022-10-23T04:44:04;99972.78;;;10.95;100.00
22550;BME280;11441;57.164;-2.120;2022-10-23T04:46:35;99965.34;;;10.99;100.00
22550;BME280;11441;57.164;-2.120;2022-10-23T04:49:03;99975.81;;;10.86;100.00
22550;BME280;11441;57.164;-2.120;2022-10-23T04:51:48;99967.78;;;11.04;100.00
22550;BME280;11441;57.164;-2.120;2022-10-23T04:54:38;99966.56;;;11.02;100.00
22550;BME280;11441;57.164;-2.120;2022-10-23T04:57:23;99960.19;;;10.94;100.00
22550;BME280;11441;57.164;-2.120;2022-10-23T05:00:12;99948.38;;;10.97;100.00
22550;BME280;11441;57.164;-2.120;2022-10-23T05:02:43;99957.53;;;11.05;100.00
22550;BME280;11441;57.164;-2.120;2022-10-23T05:05:13;99963.53;;;11.14;100.00
22550;BME280;11441;57.164;-2.120;2022-10-23T05:08:16;99972.25;;;11.20;100.00
22550;BME280;11441;57.164;-2.120;2022-10-23T05:11:02;99979.75;;;11.19;100.00
22550;BME280;11441;57.164;-2.120;2022-10-23T05:13:34;99965.56;;;11.17;100.00
22550;BME280;11441;57.164;-2.120;2022-10-23T05:16:00;99973.44;;;11.19;100.00
22550;BME280;11441;57.164;-2.120;2022-10-23T05:18:41;99979.00;;;11.22;100.00
22550;BME280;11441;57.164;-2.120;2022-10-23T05:21:21;99976.25;;;11.22;100.00
22550;BME280;11441;57.164;-2.120;2022-10-23T05:23:49;99977.44;;;11.25;100.00
22550;BME280;11441;57.164;-2.120;2022-10-23T05:26:16;99977.19;;;11.37;100.00
22550;BME280;11441;57.164;-2.120;2022-10-23T05:28:45;99978.00;;;11.38;100.00
22550;BME280;11441;57.164;-2.120;2022-10-23T05:31:16;99982.66;;;11.33;100.00
22550;BME280;11441;57.164;-2.120;2022-10-23T05:33:48;99978.81;;;11.42;100.00
22550;BME280;11441;57.164;-2.120;2022-10-23T05:36:18;99981.22;;;11.47;100.00
22550;BME280;11441;57.164;-2.120;2022-10-23T05:38:45;99984.41;;;11.49;100.00
22550;BME280;11441;57.164;-2.120;2022-10-23T05:41:15;99981.66;;;11.52;100.00
22550;BME280;11441;57.164;-2.120;2022-10-23T05:43:42;99983.81;;;11.29;100.00
22550;BME280;11441;57.164;-2.120;2022-10-23T05:46:41;99983.84;;;11.32;100.00
22550;BME280;11441;57.164;-2.120;2022-10-23T05:49:47;99981.94;;;11.40;100.00
22550;BME280;11441;57.164;-2.120;2022-10-23T05:52:20;99970.78;;;11.26;100.00
22550;BME280;11441;57.164;-2.120;2022-10-23T05:55:24;99970.44;;;11.31;100.00
22550;BME280;11441;57.164;-2.120;2022-10-23T05:58:15;99972.41;;;11.30;100.00
22550;BME280;11441;57.164;-2.120;2022-10-23T06:00:58;99971.59;;;11.30;100.00
22550;BME280;11441;57.164;-2.120;2022-10-23T06:03:49;99975.13;;;11.27;100.00
22550;BME280;11441;57.164;-2.120;2022-10-23T06:06:19;99975.03;;;11.20;100.00
22550;BME280;11441;57.164;-2.120;2022-10-23T06:09:06;99973.03;;;11.17;100.00
22550;BME280;11441;57.164;-2.120;2022-10-23T06:11:37;99968.00;;;11.26;100.00
22550;BME280;11441;57.164;-2.120;2022-10-23T06:14:10;99967.91;;;11.15;100.00
22550;BME280;11441;57.164;-2.120;2022-10-23T06:16:37;99955.66;;;11.12;100.00
22550;BME280;11441;57.164;-2.120;2022-10-23T06:19:04;99957.91;;;11.03;100.00
22550;BME280;11441;57.164;-2.120;2022-10-23T06:21:35;99951.41;;;11.19;100.00
22550;BME280;11441;57.164;-2.120;2022-10-23T06:24:05;99947.38;;;11.12;100.00
22550;BME280;11441;57.164;-2.120;2022-10-23T06:26:40;99950.50;;;11.11;100.00
22550;BME280;11441;57.164;-2.120;2022-10-23T06:29:10;99947.31;;;11.05;100.00
22550;BME280;11441;57.164;-2.120;2022-10-23T06:31:39;99938.66;;;11.07;100.00
22550;BME280;11441;57.164;-2.120;2022-10-23T06:34:09;99933.91;;;11.04;100.00
22550;BME280;11441;57.164;-2.120;2022-10-23T06:36:37;99935.56;;;11.12;100.00
22550;BME280;11441;57.164;-2.120;2022-10-23T06:39:14;99942.66;;;11.09;100.00
22550;BME280;11441;57.164;-2.120;2022-10-23T06:41:52;99934.72;;;11.04;100.00
22550;BME280;11441;57.164;-2.120;2022-10-23T06:44:38;99941.09;;;11.12;100.00
22550;BME280;11441;57.164;-2.120;2022-10-23T06:47:23;99936.84;;;11.18;100.00
22550;BME280;11441;57.164;-2.120;2022-10-23T06:50:13;99935.56;;;11.12;100.00
22550;BME280;11441;57.164;-2.120;2022-10-23T06:52:43;99933.94;;;11.07;100.00
22550;BME280;11441;57.164;-2.120;2022-10-23T06:55:16;99924.19;;;11.13;100.00
22550;BME280;11441;57.164;-2.120;2022-10-23T06:57:43;99935.66;;;11.19;100.00
22550;BME280;11441;57.164;-2.120;2022-10-23T07:00:11;99933.72;;;11.23;100.00
22550;BME280;11441;57.164;-2.120;2022-10-23T07:02:48;99922.66;;;11.20;100.00
22550;BME280;11441;57.164;-2.120;2022-10-23T07:05:33;99928.94;;;11.17;100.00
22550;BME280;11441;57.164;-2.120;2022-10-23T07:08:37;99925.63;;;11.04;100.00
22550;BME280;11441;57.164;-2.120;2022-10-23T07:11:24;99922.09;;;11.03;100.00
22550;BME280;11441;57.164;-2.120;2022-10-23T07:13:54;99919.59;;;10.91;100.00
22550;BME280;11441;57.164;-2.120;2022-10-23T07:16:22;99925.47;;;10.89;100.00
22550;BME280;11441;57.164;-2.120;2022-10-23T07:18:54;99932.16;;;10.88;100.00
22550;BME280;11441;57.164;-2.120;2022-10-23T07:21:29;99927.47;;;10.89;100.00
22550;BME280;11441;57.164;-2.120;2022-10-23T07:24:15;99929.28;;;10.78;100.00
22550;BME280;11441;57.164;-2.120;2022-10-23T07:26:43;99921.00;;;10.78;100.00
22550;BME280;11441;57.164;-2.120;2022-10-23T07:29:11;99918.34;;;10.85;100.00
22550;BME280;11441;57.164;-2.120;2022-10-23T07:31:38;99914.84;;;10.88;100.00
22550;BME280;11441;57.164;-2.120;2022-10-23T07:34:31;99921.56;;;10.90;100.00
22550;BME280;11441;57.164;-2.120;2022-10-23T07:37:13;99916.13;;;10.98;100.00
22550;BME280;11441;57.164;-2.120;2022-10-23T07:39:40;99921.31;;;11.03;100.00
22550;BME280;11441;57.164;-2.120;2022-10-23T07:42:08;99910.69;;;11.05;100.00
22550;BME280;11441;57.164;-2.120;2022-10-23T07:44:35;99917.34;;;11.00;100.00
22550;BME280;11441;57.164;-2.120;2022-10-23T07:47:02;99918.59;;;11.06;100.00
22550;BME280;11441;57.164;-2.120;2022-10-23T07:49:29;99917.06;;;11.12;100.00
22550;BME280;11441;57.164;-2.120;2022-10-23T07:51:56;99916.72;;;11.18;100.00
22550;BME280;11441;57.164;-2.120;2022-10-23T07:54:43;99911.22;;;11.18;100.00
22550;BME280;11441;57.164;-2.120;2022-10-23T07:57:18;99917.91;;;11.17;100.00
22550;BME280;11441;57.164;-2.120;2022-10-23T08:00:04;99919.50;;;11.18;100.00
22550;BME280;11441;57.164;-2.120;2022-10-23T08:02:39;99916.53;;;11.37;100.00
22550;BME280;11441;57.164;-2.120;2022-10-23T08:05:08;99921.66;;;11.39;100.00
22550;BME280;11441;57.164;-2.120;2022-10-23T08:07:58;99926.00;;;11.36;100.00
22550;BME280;11441;57.164;-2.120;2022-10-23T08:14:08;99911.97;;;11.56;100.00
22550;BME280;11441;57.164;-2.120;2022-10-23T08:16:37;99914.34;;;11.57;100.00
22550;BME280;11441;57.164;-2.120;2022-10-23T08:19:06;99924.25;;;11.62;100.00
22550;BME280;11441;57.164;-2.120;2022-10-23T08:21:35;99923.81;;;11.60;100.00
22550;BME280;11441;57.164;-2.120;2022-10-23T08:24:03;99921.09;;;11.63;100.00
22550;BME280;11441;57.164;-2.120;2022-10-23T08:26:30;99908.47;;;11.59;100.00
22550;BME280;11441;57.164;-2.120;2022-10-23T08:28:58;99910.88;;;11.64;100.00
22550;BME280;11441;57.164;-2.120;2022-10-23T08:31:26;99915.63;;;11.67;100.00
22550;BME280;11441;57.164;-2.120;2022-10-23T08:34:17;99913.31;;;11.73;100.00
22550;BME280;11441;57.164;-2.120;2022-10-23T08:36:46;99918.09;;;11.79;100.00
22550;BME280;11441;57.164;-2.120;2022-10-23T08:39:13;99922.00;;;11.78;100.00
22550;BME280;11441;57.164;-2.120;2022-10-23T08:41:54;99913.38;;;11.83;100.00
22550;BME280;11441;57.164;-2.120;2022-10-23T08:47:14;99915.91;;;12.03;100.00
22550;BME280;11441;57.164;-2.120;2022-10-23T08:50:26;99915.97;;;12.10;100.00
22550;BME280;11441;57.164;-2.120;2022-10-23T08:53:03;99919.56;;;12.14;100.00
22550;BME280;11441;57.164;-2.120;2022-10-23T08:55:34;99916.78;;;12.14;100.00
22550;BME280;11441;57.164;-2.120;2022-10-23T08:58:06;99922.66;;;12.05;100.00
22550;BME280;11441;57.164;-2.120;2022-10-23T09:00:33;99934.94;;;12.19;100.00
22550;BME280;11441;57.164;-2.120;2022-10-23T09:03:03;99936.88;;;12.11;100.00
22550;BME280;11441;57.164;-2.120;2022-10-23T09:08:55;99918.56;;;11.88;100.00
22550;BME280;11441;57.164;-2.120;2022-10-23T09:11:39;99925.31;;;11.95;100.00
22550;BME280;11441;57.164;-2.120;2022-10-23T09:17:34;99921.31;;;11.88;100.00
22550;BME280;11441;57.164;-2.120;2022-10-23T09:20:24;99923.38;;;11.99;100.00
22550;BME280;11441;57.164;-2.120;2022-10-23T09:22:58;99928.56;;;12.04;100.00
22550;BME280;11441;57.164;-2.120;2022-10-23T09:25:28;99903.31;;;12.02;100.00
22550;BME280;11441;57.164;-2.120;2022-10-23T09:27:58;99919.53;;;12.11;100.00
22550;BME280;11441;57.164;-2.120;2022-10-23T09:30:33;99913.25;;;12.17;100.00
22550;BME280;11441;57.164;-2.120;2022-10-23T09:33:38;99912.81;;;12.08;100.00
22550;BME280;11441;57.164;-2.120;2022-10-23T09:36:17;99916.00;;;12.17;100.00
22550;BME280;11441;57.164;-2.120;2022-10-23T09:41:34;99903.16;;;12.47;100.00
22550;BME280;11441;57.164;-2.120;2022-10-23T09:44:21;99904.78;;;12.58;100.00
22550;BME280;11441;57.164;-2.120;2022-10-23T09:49:24;99895.00;;;12.72;100.00
22550;BME280;11441;57.164;-2.120;2022-10-23T09:54:45;99889.13;;;12.91;100.00
22550;BME280;11441;57.164;-2.120;2022-10-23T10:02:43;99893.50;;;13.03;100.00
22550;BME280;11441;57.164;-2.120;2022-10-23T10:05:37;99890.78;;;13.14;100.00
22550;BME280;11441;57.164;-2.120;2022-10-23T10:08:42;99888.06;;;13.39;100.00
22550;BME280;11441;57.164;-2.120;2022-10-23T10:11:25;99884.13;;;13.47;100.00
22550;BME280;11441;57.164;-2.120;2022-10-23T10:22:57;99892.41;;;13.33;100.00
22550;BME280;11441;57.164;-2.120;2022-10-23T10:27:51;99904.22;;;13.26;100.00
22550;BME280;11441;57.164;-2.120;2022-10-23T10:30:23;99897.94;;;13.40;100.00
22550;BME280;11441;57.164;-2.120;2022-10-23T10:32:53;99903.88;;;13.56;100.00
22550;BME280;11441;57.164;-2.120;2022-10-23T10:35:56;99898.34;;;13.60;100.00
22550;BME280;11441;57.164;-2.120;2022-10-23T10:41:18;99899.16;;;13.64;100.00
22550;BME280;11441;57.164;-2.120;2022-10-23T10:55:47;99893.22;;;13.84;100.00
22550;BME280;11441;57.164;-2.120;2022-10-23T10:58:37;99888.84;;;13.86;100.00
22550;BME280;11441;57.164;-2.120;2022-10-23T11:01:15;99890.81;;;13.86;100.00
22550;BME280;11441;57.164;-2.120;2022-10-23T11:03:49;99890.84;;;13.71;100.00
22550;BME280;11441;57.164;-2.120;2022-10-23T11:06:23;99884.13;;;13.83;100.00
22550;BME280;11441;57.164;-2.120;2022-10-23T11:08:53;99892.03;;;13.92;100.00
22550;BME280;11441;57.164;-2.120;2022-10-23T11:11:39;99892.78;;;14.00;100.00
22550;BME280;11441;57.164;-2.120;2022-10-23T11:14:14;99885.69;;;14.02;100.00
22550;BME280;11441;57.164;-2.120;2022-10-23T11:16:46;99894.38;;;13.83;100.00
22550;BME280;11441;57.164;-2.120;2022-10-23T11:19:28;99901.13;;;13.82;100.00
22550;BME280;11441;57.164;-2.120;2022-10-23T11:31:07;99883.66;;;13.20;100.00
22550;BME280;11441;57.164;-2.120;2022-10-23T11:36:47;99874.19;;;13.17;100.00
22550;BME280;11441;57.164;-2.120;2022-10-23T11:39:27;99876.13;;;13.02;100.00
22550;BME280;11441;57.164;-2.120;2022-10-23T11:42:12;99872.19;;;13.14;100.00
22550;BME280;11441;57.164;-2.120;2022-10-23T11:44:45;99861.97;;;13.26;100.00
22550;BME280;11441;57.164;-2.120;2022-10-23T11:52:36;99867.50;;;13.26;100.00
22550;BME280;11441;57.164;-2.120;2022-10-23T11:55:19;99862.75;;;13.26;100.00
22550;BME280;11441;57.164;-2.120;2022-10-23T12:00:39;99863.50;;;13.09;100.00
22550;BME280;11441;57.164;-2.120;2022-10-23T12:03:18;99866.66;;;12.96;100.00
22550;BME280;11441;57.164;-2.120;2022-10-23T12:05:55;99867.03;;;12.98;100.00
22550;BME280;11441;57.164;-2.120;2022-10-23T12:08:26;99861.88;;;12.90;100.00
22550;BME280;11441;57.164;-2.120;2022-10-23T12:10:54;99852.81;;;12.89;100.00
22550;BME280;11441;57.164;-2.120;2022-10-23T12:16:32;99854.03;;;13.10;100.00
22550;BME280;11441;57.164;-2.120;2022-10-23T12:19:16;99852.44;;;13.05;100.00
22550;BME280;11441;57.164;-2.120;2022-10-23T12:21:45;99844.97;;;13.27;100.00
22550;BME280;11441;57.164;-2.120;2022-10-23T12:30:20;99829.56;;;13.08;100.00
22550;BME280;11441;57.164;-2.120;2022-10-23T12:38:57;99810.22;;;13.26;100.00
22550;BME280;11441;57.164;-2.120;2022-10-23T12:41:26;99799.53;;;13.28;100.00
22550;BME280;11441;57.164;-2.120;2022-10-23T12:44:12;99803.91;;;13.36;100.00
22550;BME280;11441;57.164;-2.120;2022-10-23T12:46:41;99798.75;;;13.17;100.00
22550;BME280;11441;57.164;-2.120;2022-10-23T12:49:17;99800.75;;;13.24;100.00
22550;BME280;11441;57.164;-2.120;2022-10-23T12:51:45;99790.84;;;13.05;100.00
22550;BME280;11441;57.164;-2.120;2022-10-23T12:54:20;99789.25;;;13.04;100.00
22550;BME280;11441;57.164;-2.120;2022-10-23T12:56:47;99786.09;;;13.19;100.00
22550;BME280;11441;57.164;-2.120;2022-10-23T12:59:36;99782.59;;;13.33;100.00
22550;BME280;11441;57.164;-2.120;2022-10-23T13:02:26;99782.16;;;13.53;100.00
22550;BME280;11441;57.164;-2.120;2022-10-23T13:05:18;99779.78;;;13.62;100.00
22550;BME280;11441;57.164;-2.120;2022-10-23T13:08:04;99783.78;;;13.43;100.00
22550;BME280;11441;57.164;-2.120;2022-10-23T13:10:49;99782.16;;;13.17;100.00
22550;BME280;11441;57.164;-2.120;2022-10-23T13:13:21;99777.81;;;13.05;100.00
22550;BME280;11441;57.164;-2.120;2022-10-23T13:15:49;99766.34;;;12.89;100.00
22550;BME280;11441;57.164;-2.120;2022-10-23T13:18:16;99770.28;;;12.80;100.00
22550;BME280;11441;57.164;-2.120;2022-10-23T13:23:27;99764.78;;;13.06;100.00
22550;BME280;11441;57.164;-2.120;2022-10-23T13:26:05;99758.06;;;13.10;100.00
22550;BME280;11441;57.164;-2.120;2022-10-23T13:28:33;99762.81;;;13.17;100.00
22550;BME280;11441;57.164;-2.120;2022-10-23T13:33:47;99742.69;;;13.38;100.00
22550;BME280;11441;57.164;-2.120;2022-10-23T13:39:13;99731.97;;;13.54;100.00
22550;BME280;11441;57.164;-2.120;2022-10-23T13:41:43;99722.91;;;13.29;100.00
22550;BME280;11441;57.164;-2.120;2022-10-23T13:44:12;99718.16;;;13.51;100.00
22550;BME280;11441;57.164;-2.120;2022-10-23T13:46:39;99706.75;;;13.34;100.00
22550;BME280;11441;57.164;-2.120;2022-10-23T13:49:06;99712.66;;;12.97;100.00
22550;BME280;11441;57.164;-2.120;2022-10-23T13:51:40;99716.63;;;12.92;100.00
22550;BME280;11441;57.164;-2.120;2022-10-23T13:54:17;99713.06;;;12.85;100.00
22550;BME280;11441;57.164;-2.120;2022-10-23T13:57:05;99709.91;;;12.97;100.00
22550;BME280;11441;57.164;-2.120;2022-10-23T13:59:37;99694.91;;;13.05;100.00
22550;BME280;11441;57.164;-2.120;2022-10-23T14:02:16;99687.78;;;13.04;100.00
22550;BME280;11441;57.164;-2.120;2022-10-23T14:04:44;99690.13;;;13.09;100.00
22550;BME280;11441;57.164;-2.120;2022-10-23T14:07:11;99688.19;;;12.85;100.00
22550;BME280;11441;57.164;-2.120;2022-10-23T14:09:38;99685.00;;;13.08;100.00
22550;BME280;11441;57.164;-2.120;2022-10-23T14:12:05;99675.56;;;12.94;100.00
22550;BME280;11441;57.164;-2.120;2022-10-23T14:14:32;99677.09;;;13.06;100.00
22550;BME280;11441;57.164;-2.120;2022-10-23T14:16:59;99674.75;;;13.08;100.00
22550;BME280;11441;57.164;-2.120;2022-10-23T14:19:26;99669.63;;;12.81;100.00
22550;BME280;11441;57.164;-2.120;2022-10-23T14:21:53;99676.75;;;12.79;100.00
22550;BME280;11441;57.164;-2.120;2022-10-23T14:24:20;99665.28;;;13.02;100.00
22550;BME280;11441;57.164;-2.120;2022-10-23T14:26:46;99666.06;;;13.02;100.00
22550;BME280;11441;57.164;-2.120;2022-10-23T14:29:13;99660.50;;;13.24;100.00
22550;BME280;11441;57.164;-2.120;2022-10-23T14:34:53;99654.59;;;13.26;100.00
22550;BME280;11441;57.164;-2.120;2022-10-23T14:37:38;99651.03;;;13.14;100.00
22550;BME280;11441;57.164;-2.120;2022-10-23T14:40:06;99642.75;;;13.36;100.00
22550;BME280;11441;57.164;-2.120;2022-10-23T14:42:33;99645.47;;;13.25;100.00
22550;BME280;11441;57.164;-2.120;2022-10-23T14:45:00;99641.56;;;13.33;100.00
22550;BME280;11441;57.164;-2.120;2022-10-23T14:47:30;99638.38;;;13.38;100.00
22550;BME280;11441;57.164;-2.120;2022-10-23T14:50:16;99639.16;;;13.43;100.00
22550;BME280;11441;57.164;-2.120;2022-10-23T14:52:43;99636.38;;;13.46;100.00
22550;BME280;11441;57.164;-2.120;2022-10-23T14:55:09;99631.28;;;13.23;100.00
22550;BME280;11441;57.164;-2.120;2022-10-23T14:57:36;99629.31;;;13.20;100.00
22550;BME280;11441;57.164;-2.120;2022-10-23T15:00:04;99625.00;;;13.12;100.00
22550;BME280;11441;57.164;-2.120;2022-10-23T15:02:31;99616.28;;;13.24;100.00
22550;BME280;11441;57.164;-2.120;2022-10-23T15:04:58;99610.72;;;13.38;100.00
22550;BME280;11441;57.164;-2.120;2022-10-23T15:07:25;99609.13;;;13.30;100.00
22550;BME280;11441;57.164;-2.120;2022-10-23T15:09:52;99611.13;;;13.26;100.00
22550;BME280;11441;57.164;-2.120;2022-10-23T15:12:19;99615.09;;;13.21;100.00
22550;BME280;11441;57.164;-2.120;2022-10-23T15:14:45;99612.72;;;13.31;100.00
22550;BME280;11441;57.164;-2.120;2022-10-23T15:17:12;99607.19;;;13.38;100.00
22550;BME280;11441;57.164;-2.120;2022-10-23T15:19:41;99609.94;;;13.42;100.00
22550;BME280;11441;57.164;-2.120;2022-10-23T15:22:08;99599.69;;;13.20;100.00
22550;BME280;11441;57.164;-2.120;2022-10-23T15:24:34;99609.16;;;13.23;100.00
22550;BME280;11441;57.164;-2.120;2022-10-23T15:27:20;99604.81;;;13.26;100.00
22550;BME280;11441;57.164;-2.120;2022-10-23T15:29:47;99597.31;;;13.23;100.00
22550;BME280;11441;57.164;-2.120;2022-10-23T15:32:14;99602.06;;;13.22;100.00
22550;BME280;11441;57.164;-2.120;2022-10-23T15:35:00;99595.75;;;13.18;100.00